sensor_id;sensor_type;location;lat;lon;timestamp;P1;durP1;ratioP1;P2;durP2;ratioP2
62071;SDS011;48031;48.542;13.232;2023-05-07T00:02:49;6.13;;;3.10;;
62071;SDS011;48031;48.542;13.232;2023-05-07T00:06:51;5.00;;;3.22;;
62071;SDS011;48031;48.542;13.232;2023-05-07T00:10:52;4.20;;;3.17;;
62071;SDS011;48031;48.542;13.232;2023-05-07T00:14:54;7.72;;;3.28;;
62071;SDS011;48031;48.542;13.232;2023-05-07T00:18:56;6.05;;;3.30;;
62071;SDS011;48031;48.542;13.232;2023-05-07T00:22:58;4.03;;;3.17;;
62071;SDS011;48031;48.542;13.232;2023-05-07T00:26:59;4.50;;;2.90;;
62071;SDS011;48031;48.542;13.232;2023-05-07T00:31:01;5.18;;;3.28;;
62071;SDS011;48031;48.542;13.232;2023-05-07T00:35:03;6.93;;;3.15;;
62071;SDS011;48031;48.542;13.232;2023-05-07T00:39:06;6.15;;;3.15;;
62071;SDS011;48031;48.542;13.232;2023-05-07T00:43:08;9.25;;;3.20;;
62071;SDS011;48031;48.542;13.232;2023-05-07T00:47:10;4.50;;;3.50;;
62071;SDS011;48031;48.542;13.232;2023-05-07T00:51:12;4.00;;;2.80;;
62071;SDS011;48031;48.542;13.232;2023-05-07T00:55:15;3.80;;;2.85;;
62071;SDS011;48031;48.542;13.232;2023-05-07T00:59:17;6.38;;;3.50;;
62071;SDS011;48031;48.542;13.232;2023-05-07T01:03:19;4.70;;;3.30;;
62071;SDS011;48031;48.542;13.232;2023-05-07T01:07:22;4.53;;;3.10;;
62071;SDS011;48031;48.542;13.232;2023-05-07T01:11:25;5.10;;;3.00;;
62071;SDS011;48031;48.542;13.232;2023-05-07T01:15:27;4.07;;;2.65;;
62071;SDS011;48031;48.542;13.232;2023-05-07T01:19:31;5.18;;;2.70;;
62071;SDS011;48031;48.542;13.232;2023-05-07T01:23:33;5.00;;;2.78;;
62071;SDS011;48031;48.542;13.232;2023-05-07T01:27:37;7.63;;;4.18;;
62071;SDS011;48031;48.542;13.232;2023-05-07T01:31:39;4.97;;;2.50;;
62071;SDS011;48031;48.542;13.232;2023-05-07T01:35:43;4.63;;;3.00;;
62071;SDS011;48031;48.542;13.232;2023-05-07T01:39:48;3.85;;;2.78;;
62071;SDS011;48031;48.542;13.232;2023-05-07T01:43:51;3.63;;;2.55;;
62071;SDS011;48031;48.542;13.232;2023-05-07T01:47:54;4.20;;;3.20;;
62071;SDS011;48031;48.542;13.232;2023-05-07T01:51:59;3.88;;;3.10;;
62071;SDS011;48031;48.542;13.232;2023-05-07T01:56:01;4.82;;;3.47;;
62071;SDS011;48031;48.542;13.232;2023-05-07T02:00:04;6.35;;;3.30;;
62071;SDS011;48031;48.542;13.232;2023-05-07T02:04:15;6.15;;;3.20;;
62071;SDS011;48031;48.542;13.232;2023-05-07T02:08:18;3.78;;;2.55;;
62071;SDS011;48031;48.542;13.232;2023-05-07T02:12:20;3.92;;;2.90;;
62071;SDS011;48031;48.542;13.232;2023-05-07T02:16:23;4.90;;;3.22;;
62071;SDS011;48031;48.542;13.232;2023-05-07T02:20:26;4.65;;;3.13;;
62071;SDS011;48031;48.542;13.232;2023-05-07T02:24:28;3.78;;;3.00;;
62071;SDS011;48031;48.542;13.232;2023-05-07T02:28:30;4.82;;;3.05;;
62071;SDS011;48031;48.542;13.232;2023-05-07T02:32:34;3.97;;;3.00;;
62071;SDS011;48031;48.542;13.232;2023-05-07T02:36:36;7.13;;;3.50;;
62071;SDS011;48031;48.542;13.232;2023-05-07T02:40:43;5.03;;;3.20;;
62071;SDS011;48031;48.542;13.232;2023-05-07T02:44:45;4.72;;;3.38;;
62071;SDS011;48031;48.542;13.232;2023-05-07T02:48:47;5.68;;;3.03;;
62071;SDS011;48031;48.542;13.232;2023-05-07T02:52:49;3.30;;;2.67;;
62071;SDS011;48031;48.542;13.232;2023-05-07T02:56:51;4.55;;;2.90;;
62071;SDS011;48031;48.542;13.232;2023-05-07T03:00:53;6.03;;;2.67;;
62071;SDS011;48031;48.542;13.232;2023-05-07T03:05:09;4.15;;;3.05;;
62071;SDS011;48031;48.542;13.232;2023-05-07T03:09:11;4.05;;;2.85;;
62071;SDS011;48031;48.542;13.232;2023-05-07T03:13:13;10.65;;;2.95;;
62071;SDS011;48031;48.542;13.232;2023-05-07T03:17:16;3.33;;;2.40;;
62071;SDS011;48031;48.542;13.232;2023-05-07T03:21:18;3.80;;;2.08;;
62071;SDS011;48031;48.542;13.232;2023-05-07T03:25:20;3.05;;;2.33;;
62071;SDS011;48031;48.542;13.232;2023-05-07T03:29:22;3.50;;;2.80;;
62071;SDS011;48031;48.542;13.232;2023-05-07T03:33:25;4.35;;;3.17;;
62071;SDS011;48031;48.542;13.232;2023-05-07T03:37:29;7.03;;;2.95;;
62071;SDS011;48031;48.542;13.232;2023-05-07T03:41:32;5.72;;;3.03;;
62071;SDS011;48031;48.542;13.232;2023-05-07T03:45:34;3.95;;;2.65;;
62071;SDS011;48031;48.542;13.232;2023-05-07T03:49:47;5.72;;;3.20;;
62071;SDS011;48031;48.542;13.232;2023-05-07T03:53:51;4.40;;;2.75;;
62071;SDS011;48031;48.542;13.232;2023-05-07T03:57:56;5.75;;;3.28;;
62071;SDS011;48031;48.542;13.232;2023-05-07T04:02:00;4.65;;;2.50;;
62071;SDS011;48031;48.542;13.232;2023-05-07T04:06:06;4.35;;;3.13;;
62071;SDS011;48031;48.542;13.232;2023-05-07T04:10:09;6.82;;;3.20;;
62071;SDS011;48031;48.542;13.232;2023-05-07T04:14:14;4.18;;;3.00;;
62071;SDS011;48031;48.542;13.232;2023-05-07T04:18:16;4.70;;;3.15;;
62071;SDS011;48031;48.542;13.232;2023-05-07T04:22:20;7.38;;;3.10;;
62071;SDS011;48031;48.542;13.232;2023-05-07T04:26:22;5.57;;;2.95;;
62071;SDS011;48031;48.542;13.232;2023-05-07T04:30:25;3.83;;;2.95;;
62071;SDS011;48031;48.542;13.232;2023-05-07T04:34:27;5.85;;;3.10;;
62071;SDS011;48031;48.542;13.232;2023-05-07T04:38:30;4.90;;;2.83;;
62071;SDS011;48031;48.542;13.232;2023-05-07T04:42:34;5.38;;;2.70;;
62071;SDS011;48031;48.542;13.232;2023-05-07T04:46:37;3.20;;;2.70;;
62071;SDS011;48031;48.542;13.232;2023-05-07T04:50:40;4.80;;;2.85;;
62071;SDS011;48031;48.542;13.232;2023-05-07T04:54:42;4.82;;;2.72;;
62071;SDS011;48031;48.542;13.232;2023-05-07T04:58:46;3.40;;;2.40;;
62071;SDS011;48031;48.542;13.232;2023-05-07T05:02:49;4.55;;;2.60;;
62071;SDS011;48031;48.542;13.232;2023-05-07T05:06:54;3.35;;;2.47;;
62071;SDS011;48031;48.542;13.232;2023-05-07T05:10:56;4.40;;;2.70;;
62071;SDS011;48031;48.542;13.232;2023-05-07T05:14:59;3.63;;;2.92;;
62071;SDS011;48031;48.542;13.232;2023-05-07T05:19:01;5.68;;;3.40;;
62071;SDS011;48031;48.542;13.232;2023-05-07T05:23:05;3.55;;;2.90;;
62071;SDS011;48031;48.542;13.232;2023-05-07T05:27:09;5.22;;;2.83;;
62071;SDS011;48031;48.542;13.232;2023-05-07T05:31:11;3.70;;;2.80;;
62071;SDS011;48031;48.542;13.232;2023-05-07T05:35:13;3.38;;;2.95;;
62071;SDS011;48031;48.542;13.232;2023-05-07T05:39:17;5.40;;;2.95;;
62071;SDS011;48031;48.542;13.232;2023-05-07T05:43:18;5.60;;;3.55;;
62071;SDS011;48031;48.542;13.232;2023-05-07T05:47:20;4.95;;;3.25;;
62071;SDS011;48031;48.542;13.232;2023-05-07T05:51:22;4.47;;;3.05;;
62071;SDS011;48031;48.542;13.232;2023-05-07T05:55:24;4.10;;;3.20;;
62071;SDS011;48031;48.542;13.232;2023-05-07T05:59:26;5.35;;;3.42;;
62071;SDS011;48031;48.542;13.232;2023-05-07T06:03:28;4.47;;;3.13;;
62071;SDS011;48031;48.542;13.232;2023-05-07T06:07:34;5.65;;;3.50;;
62071;SDS011;48031;48.542;13.232;2023-05-07T06:11:36;4.30;;;3.22;;
62071;SDS011;48031;48.542;13.232;2023-05-07T06:15:39;4.50;;;3.22;;
62071;SDS011;48031;48.542;13.232;2023-05-07T06:19:44;3.78;;;3.15;;
62071;SDS011;48031;48.542;13.232;2023-05-07T06:23:47;4.57;;;3.33;;
62071;SDS011;48031;48.542;13.232;2023-05-07T06:27:49;5.22;;;3.67;;
62071;SDS011;48031;48.542;13.232;2023-05-07T06:31:54;4.53;;;3.60;;
62071;SDS011;48031;48.542;13.232;2023-05-07T06:35:57;9.63;;;3.80;;
62071;SDS011;48031;48.542;13.232;2023-05-07T06:39:59;4.85;;;3.55;;
62071;SDS011;48031;48.542;13.232;2023-05-07T06:44:03;3.45;;;2.88;;
62071;SDS011;48031;48.542;13.232;2023-05-07T06:48:11;4.78;;;3.00;;
62071;SDS011;48031;48.542;13.232;2023-05-07T06:52:32;3.42;;;2.90;;
62071;SDS011;48031;48.542;13.232;2023-05-07T06:56:35;4.53;;;2.83;;
62071;SDS011;48031;48.542;13.232;2023-05-07T07:00:38;7.97;;;3.95;;
62071;SDS011;48031;48.542;13.232;2023-05-07T07:04:40;5.22;;;2.92;;
62071;SDS011;48031;48.542;13.232;2023-05-07T07:08:44;4.13;;;3.08;;
62071;SDS011;48031;48.542;13.232;2023-05-07T07:12:49;3.35;;;2.85;;
62071;SDS011;48031;48.542;13.232;2023-05-07T07:16:51;4.68;;;3.65;;
62071;SDS011;48031;48.542;13.232;2023-05-07T07:20:54;4.40;;;3.50;;
62071;SDS011;48031;48.542;13.232;2023-05-07T07:24:56;5.18;;;3.35;;
62071;SDS011;48031;48.542;13.232;2023-05-07T07:28:58;5.07;;;3.78;;
62071;SDS011;48031;48.542;13.232;2023-05-07T07:33:00;4.32;;;3.63;;
62071;SDS011;48031;48.542;13.232;2023-05-07T07:37:07;4.43;;;3.08;;
62071;SDS011;48031;48.542;13.232;2023-05-07T07:41:11;4.85;;;3.70;;
62071;SDS011;48031;48.542;13.232;2023-05-07T07:45:13;4.75;;;3.90;;
62071;SDS011;48031;48.542;13.232;2023-05-07T07:49:19;6.18;;;4.00;;
62071;SDS011;48031;48.542;13.232;2023-05-07T07:53:21;6.10;;;4.25;;
62071;SDS011;48031;48.542;13.232;2023-05-07T07:57:24;6.70;;;4.10;;
62071;SDS011;48031;48.542;13.232;2023-05-07T08:01:26;7.25;;;4.32;;
62071;SDS011;48031;48.542;13.232;2023-05-07T08:05:28;5.57;;;3.97;;
62071;SDS011;48031;48.542;13.232;2023-05-07T08:09:32;5.68;;;4.40;;
62071;SDS011;48031;48.542;13.232;2023-05-07T08:13:36;6.00;;;4.10;;
62071;SDS011;48031;48.542;13.232;2023-05-07T08:17:39;5.03;;;3.78;;
62071;SDS011;48031;48.542;13.232;2023-05-07T08:21:41;5.13;;;3.88;;
62071;SDS011;48031;48.542;13.232;2023-05-07T08:25:45;4.50;;;3.60;;
62071;SDS011;48031;48.542;13.232;2023-05-07T08:29:47;4.35;;;3.47;;
62071;SDS011;48031;48.542;13.232;2023-05-07T08:33:52;4.95;;;3.55;;
62071;SDS011;48031;48.542;13.232;2023-05-07T08:37:54;4.65;;;3.47;;
62071;SDS011;48031;48.542;13.232;2023-05-07T08:41:56;5.60;;;3.67;;
62071;SDS011;48031;48.542;13.232;2023-05-07T08:46:04;5.07;;;3.75;;
62071;SDS011;48031;48.542;13.232;2023-05-07T08:50:13;4.07;;;3.13;;
62071;SDS011;48031;48.542;13.232;2023-05-07T08:54:16;4.20;;;3.33;;
62071;SDS011;48031;48.542;13.232;2023-05-07T08:58:19;4.72;;;3.55;;
62071;SDS011;48031;48.542;13.232;2023-05-07T09:02:21;4.35;;;3.40;;
62071;SDS011;48031;48.542;13.232;2023-05-07T09:06:24;5.70;;;3.33;;
62071;SDS011;48031;48.542;13.232;2023-05-07T09:10:26;7.68;;;3.33;;
62071;SDS011;48031;48.542;13.232;2023-05-07T09:14:28;4.47;;;3.28;;
62071;SDS011;48031;48.542;13.232;2023-05-07T09:18:30;4.07;;;3.17;;
62071;SDS011;48031;48.542;13.232;2023-05-07T09:22:32;4.13;;;3.50;;
62071;SDS011;48031;48.542;13.232;2023-05-07T09:26:38;3.78;;;3.17;;
62071;SDS011;48031;48.542;13.232;2023-05-07T09:30:42;4.07;;;3.40;;
62071;SDS011;48031;48.542;13.232;2023-05-07T09:34:46;4.22;;;3.47;;
62071;SDS011;48031;48.542;13.232;2023-05-07T09:38:51;5.18;;;3.75;;
62071;SDS011;48031;48.542;13.232;2023-05-07T09:42:53;2.90;;;2.38;;
62071;SDS011;48031;48.542;13.232;2023-05-07T09:46:57;5.32;;;3.08;;
62071;SDS011;48031;48.542;13.232;2023-05-07T09:51:17;4.05;;;2.90;;
62071;SDS011;48031;48.542;13.232;2023-05-07T09:55:29;4.30;;;3.00;;
62071;SDS011;48031;48.542;13.232;2023-05-07T09:59:32;4.18;;;2.63;;
62071;SDS011;48031;48.542;13.232;2023-05-07T10:03:39;2.67;;;2.45;;
62071;SDS011;48031;48.542;13.232;2023-05-07T10:07:43;2.80;;;2.30;;
62071;SDS011;48031;48.542;13.232;2023-05-07T10:11:46;3.50;;;2.63;;
62071;SDS011;48031;48.542;13.232;2023-05-07T10:15:55;2.70;;;2.38;;
62071;SDS011;48031;48.542;13.232;2023-05-07T10:20:00;2.60;;;2.40;;
62071;SDS011;48031;48.542;13.232;2023-05-07T10:24:06;2.70;;;2.50;;
62071;SDS011;48031;48.542;13.232;2023-05-07T10:28:16;2.35;;;2.15;;
62071;SDS011;48031;48.542;13.232;2023-05-07T10:36:56;2.25;;;2.05;;
62071;SDS011;48031;48.542;13.232;2023-05-07T10:40:59;2.30;;;2.10;;
62071;SDS011;48031;48.542;13.232;2023-05-07T10:45:15;3.08;;;2.30;;
62071;SDS011;48031;48.542;13.232;2023-05-07T10:49:21;2.42;;;2.13;;
62071;SDS011;48031;48.542;13.232;2023-05-07T10:53:32;2.60;;;2.40;;
62071;SDS011;48031;48.542;13.232;2023-05-07T10:57:40;2.70;;;2.13;;
62071;SDS011;48031;48.542;13.232;2023-05-07T11:01:49;2.65;;;2.40;;
62071;SDS011;48031;48.542;13.232;2023-05-07T11:06:22;2.80;;;2.30;;
62071;SDS011;48031;48.542;13.232;2023-05-07T11:15:36;2.00;;;1.88;;
62071;SDS011;48031;48.542;13.232;2023-05-07T11:20:03;3.15;;;2.08;;
62071;SDS011;48031;48.542;13.232;2023-05-07T11:24:21;2.17;;;1.98;;
62071;SDS011;48031;48.542;13.232;2023-05-07T11:28:29;3.90;;;2.28;;
62071;SDS011;48031;48.542;13.232;2023-05-07T11:32:36;2.47;;;1.88;;
62071;SDS011;48031;48.542;13.232;2023-05-07T11:36:41;2.05;;;1.88;;
62071;SDS011;48031;48.542;13.232;2023-05-07T11:40:51;2.28;;;1.77;;
62071;SDS011;48031;48.542;13.232;2023-05-07T11:48:56;2.00;;;1.80;;
62071;SDS011;48031;48.542;13.232;2023-05-07T11:52:58;1.85;;;1.75;;
62071;SDS011;48031;48.542;13.232;2023-05-07T11:57:00;2.00;;;1.90;;
62071;SDS011;48031;48.542;13.232;2023-05-07T12:01:02;2.58;;;1.80;;
62071;SDS011;48031;48.542;13.232;2023-05-07T12:05:04;1.70;;;1.60;;
62071;SDS011;48031;48.542;13.232;2023-05-07T12:09:06;1.85;;;1.75;;
62071;SDS011;48031;48.542;13.232;2023-05-07T12:13:16;2.58;;;1.70;;
62071;SDS011;48031;48.542;13.232;2023-05-07T12:17:25;2.00;;;1.80;;
62071;SDS011;48031;48.542;13.232;2023-05-07T12:21:27;2.05;;;1.73;;
62071;SDS011;48031;48.542;13.232;2023-05-07T12:25:30;1.77;;;1.67;;
62071;SDS011;48031;48.542;13.232;2023-05-07T12:29:33;1.65;;;1.55;;
62071;SDS011;48031;48.542;13.232;2023-05-07T12:33:35;1.88;;;1.58;;
62071;SDS011;48031;48.542;13.232;2023-05-07T12:37:37;2.95;;;1.73;;
62071;SDS011;48031;48.542;13.232;2023-05-07T12:46:16;2.28;;;1.50;;
62071;SDS011;48031;48.542;13.232;2023-05-07T12:50:20;2.13;;;1.70;;
62071;SDS011;48031;48.542;13.232;2023-05-07T12:54:36;1.58;;;1.48;;
62071;SDS011;48031;48.542;13.232;2023-05-07T12:58:40;2.42;;;2.20;;
62071;SDS011;48031;48.542;13.232;2023-05-07T13:02:42;3.10;;;2.53;;
62071;SDS011;48031;48.542;13.232;2023-05-07T13:06:48;2.65;;;2.45;;
62071;SDS011;48031;48.542;13.232;2023-05-07T13:10:50;3.00;;;2.50;;
62071;SDS011;48031;48.542;13.232;2023-05-07T13:14:52;3.10;;;2.80;;
62071;SDS011;48031;48.542;13.232;2023-05-07T13:18:53;2.85;;;2.50;;
62071;SDS011;48031;48.542;13.232;2023-05-07T13:22:55;2.78;;;2.55;;
62071;SDS011;48031;48.542;13.232;2023-05-07T13:26:57;3.83;;;2.67;;
62071;SDS011;48031;48.542;13.232;2023-05-07T13:30:59;4.28;;;2.60;;
62071;SDS011;48031;48.542;13.232;2023-05-07T13:35:01;5.82;;;3.10;;
62071;SDS011;48031;48.542;13.232;2023-05-07T13:39:03;3.58;;;3.13;;
62071;SDS011;48031;48.542;13.232;2023-05-07T13:43:05;3.47;;;2.85;;
62071;SDS011;48031;48.542;13.232;2023-05-07T13:47:07;4.15;;;2.72;;
62071;SDS011;48031;48.542;13.232;2023-05-07T13:51:09;4.20;;;2.83;;
62071;SDS011;48031;48.542;13.232;2023-05-07T13:55:11;2.80;;;2.40;;
62071;SDS011;48031;48.542;13.232;2023-05-07T13:59:13;2.35;;;1.92;;
62071;SDS011;48031;48.542;13.232;2023-05-07T14:03:15;3.00;;;2.20;;
62071;SDS011;48031;48.542;13.232;2023-05-07T14:07:19;2.47;;;2.00;;
62071;SDS011;48031;48.542;13.232;2023-05-07T14:11:20;2.42;;;2.22;;
62071;SDS011;48031;48.542;13.232;2023-05-07T14:15:22;2.60;;;2.30;;
62071;SDS011;48031;48.542;13.232;2023-05-07T14:19:24;3.22;;;2.28;;
62071;SDS011;48031;48.542;13.232;2023-05-07T14:23:26;2.30;;;2.10;;
62071;SDS011;48031;48.542;13.232;2023-05-07T14:27:28;3.05;;;2.40;;
62071;SDS011;48031;48.542;13.232;2023-05-07T14:31:30;2.47;;;2.20;;
62071;SDS011;48031;48.542;13.232;2023-05-07T14:35:32;3.55;;;2.40;;
62071;SDS011;48031;48.542;13.232;2023-05-07T14:39:33;2.45;;;2.03;;
62071;SDS011;48031;48.542;13.232;2023-05-07T14:43:35;2.15;;;1.95;;
62071;SDS011;48031;48.542;13.232;2023-05-07T14:47:37;1.92;;;1.80;;
62071;SDS011;48031;48.542;13.232;2023-05-07T14:51:39;3.28;;;2.05;;
62071;SDS011;48031;48.542;13.232;2023-05-07T14:55:41;1.92;;;1.80;;
62071;SDS011;48031;48.542;13.232;2023-05-07T14:59:43;2.55;;;2.00;;
62071;SDS011;48031;48.542;13.232;2023-05-07T15:03:45;2.20;;;1.80;;
62071;SDS011;48031;48.542;13.232;2023-05-07T15:07:47;2.40;;;2.00;;
62071;SDS011;48031;48.542;13.232;2023-05-07T15:11:48;2.13;;;1.92;;
62071;SDS011;48031;48.542;13.232;2023-05-07T15:15:50;1.98;;;1.88;;
62071;SDS011;48031;48.542;13.232;2023-05-07T15:19:52;2.25;;;1.80;;
62071;SDS011;48031;48.542;13.232;2023-05-07T15:23:55;2.38;;;2.15;;
62071;SDS011;48031;48.542;13.232;2023-05-07T15:27:56;3.15;;;2.10;;
62071;SDS011;48031;48.542;13.232;2023-05-07T15:31:58;2.55;;;2.10;;
62071;SDS011;48031;48.542;13.232;2023-05-07T15:36:00;2.50;;;2.30;;
62071;SDS011;48031;48.542;13.232;2023-05-07T15:40:03;2.75;;;2.55;;
62071;SDS011;48031;48.542;13.232;2023-05-07T15:44:07;3.20;;;2.90;;
62071;SDS011;48031;48.542;13.232;2023-05-07T15:48:09;3.47;;;3.17;;
62071;SDS011;48031;48.542;13.232;2023-05-07T15:52:12;4.35;;;2.53;;
62071;SDS011;48031;48.542;13.232;2023-05-07T15:56:16;3.33;;;2.95;;
62071;SDS011;48031;48.542;13.232;2023-05-07T16:00:17;3.42;;;3.10;;
62071;SDS011;48031;48.542;13.232;2023-05-07T16:04:19;4.38;;;3.10;;
62071;SDS011;48031;48.542;13.232;2023-05-07T16:08:23;4.10;;;3.70;;
62071;SDS011;48031;48.542;13.232;2023-05-07T16:12:24;3.50;;;2.83;;
62071;SDS011;48031;48.542;13.232;2023-05-07T16:16:26;4.55;;;3.42;;
62071;SDS011;48031;48.542;13.232;2023-05-07T16:20:30;3.65;;;2.70;;
62071;SDS011;48031;48.542;13.232;2023-05-07T16:24:32;3.30;;;2.95;;
62071;SDS011;48031;48.542;13.232;2023-05-07T16:28:34;3.65;;;2.88;;
62071;SDS011;48031;48.542;13.232;2023-05-07T16:32:36;3.25;;;2.95;;
62071;SDS011;48031;48.542;13.232;2023-05-07T16:36:38;4.88;;;3.47;;
62071;SDS011;48031;48.542;13.232;2023-05-07T16:40:39;3.78;;;3.28;;
62071;SDS011;48031;48.542;13.232;2023-05-07T16:44:42;6.15;;;3.67;;
62071;SDS011;48031;48.542;13.232;2023-05-07T16:48:44;3.90;;;2.92;;
62071;SDS011;48031;48.542;13.232;2023-05-07T16:52:45;4.38;;;2.75;;
62071;SDS011;48031;48.542;13.232;2023-05-07T16:56:47;5.47;;;3.10;;
62071;SDS011;48031;48.542;13.232;2023-05-07T17:00:49;2.90;;;2.60;;
62071;SDS011;48031;48.542;13.232;2023-05-07T17:04:51;4.15;;;2.30;;
62071;SDS011;48031;48.542;13.232;2023-05-07T17:08:54;3.58;;;2.92;;
62071;SDS011;48031;48.542;13.232;2023-05-07T17:12:56;3.53;;;2.72;;
62071;SDS011;48031;48.542;13.232;2023-05-07T17:16:58;4.43;;;2.90;;
62071;SDS011;48031;48.542;13.232;2023-05-07T17:20:59;3.42;;;2.40;;
62071;SDS011;48031;48.542;13.232;2023-05-07T17:25:01;3.60;;;2.80;;
62071;SDS011;48031;48.542;13.232;2023-05-07T17:29:04;4.15;;;2.72;;
62071;SDS011;48031;48.542;13.232;2023-05-07T17:33:06;3.22;;;2.63;;
62071;SDS011;48031;48.542;13.232;2023-05-07T17:37:21;3.70;;;3.00;;
62071;SDS011;48031;48.542;13.232;2023-05-07T17:41:24;3.45;;;2.80;;
62071;SDS011;48031;48.542;13.232;2023-05-07T17:45:26;3.70;;;2.75;;
62071;SDS011;48031;48.542;13.232;2023-05-07T17:49:27;4.40;;;3.22;;
62071;SDS011;48031;48.542;13.232;2023-05-07T17:53:29;4.85;;;2.95;;
62071;SDS011;48031;48.542;13.232;2023-05-07T17:57:32;4.57;;;3.50;;
62071;SDS011;48031;48.542;13.232;2023-05-07T18:01:37;4.63;;;3.78;;
62071;SDS011;48031;48.542;13.232;2023-05-07T18:05:39;5.43;;;3.53;;
62071;SDS011;48031;48.542;13.232;2023-05-07T18:09:41;6.88;;;3.00;;
62071;SDS011;48031;48.542;13.232;2023-05-07T18:13:43;3.33;;;2.67;;
62071;SDS011;48031;48.542;13.232;2023-05-07T18:17:45;3.90;;;3.00;;
62071;SDS011;48031;48.542;13.232;2023-05-07T18:21:46;4.30;;;3.10;;
62071;SDS011;48031;48.542;13.232;2023-05-07T18:25:49;4.45;;;3.30;;
62071;SDS011;48031;48.542;13.232;2023-05-07T18:29:51;3.80;;;2.72;;
62071;SDS011;48031;48.542;13.232;2023-05-07T18:33:53;4.20;;;3.25;;
62071;SDS011;48031;48.542;13.232;2023-05-07T18:37:56;4.72;;;3.42;;
62071;SDS011;48031;48.542;13.232;2023-05-07T18:41:58;3.63;;;2.85;;
62071;SDS011;48031;48.542;13.232;2023-05-07T18:46:00;7.03;;;3.42;;
62071;SDS011;48031;48.542;13.232;2023-05-07T18:50:02;6.47;;;3.40;;
62071;SDS011;48031;48.542;13.232;2023-05-07T18:54:06;4.70;;;2.83;;
62071;SDS011;48031;48.542;13.232;2023-05-07T18:58:08;4.10;;;2.70;;
62071;SDS011;48031;48.542;13.232;2023-05-07T19:02:10;4.93;;;3.13;;
62071;SDS011;48031;48.542;13.232;2023-05-07T19:06:14;4.50;;;2.92;;
62071;SDS011;48031;48.542;13.232;2023-05-07T19:10:16;5.78;;;3.30;;
62071;SDS011;48031;48.542;13.232;2023-05-07T19:14:18;5.25;;;3.65;;
62071;SDS011;48031;48.542;13.232;2023-05-07T19:18:19;4.68;;;3.30;;
62071;SDS011;48031;48.542;13.232;2023-05-07T19:22:21;4.20;;;3.10;;
62071;SDS011;48031;48.542;13.232;2023-05-07T19:26:23;5.53;;;3.65;;
62071;SDS011;48031;48.542;13.232;2023-05-07T19:30:25;5.15;;;3.42;;
62071;SDS011;48031;48.542;13.232;2023-05-07T19:34:27;4.72;;;3.45;;
62071;SDS011;48031;48.542;13.232;2023-05-07T19:38:31;7.28;;;3.00;;
62071;SDS011;48031;48.542;13.232;2023-05-07T19:42:32;5.28;;;3.42;;
62071;SDS011;48031;48.542;13.232;2023-05-07T19:46:34;6.90;;;3.42;;
62071;SDS011;48031;48.542;13.232;2023-05-07T19:50:36;4.68;;;3.60;;
62071;SDS011;48031;48.542;13.232;2023-05-07T19:54:38;4.00;;;3.17;;
62071;SDS011;48031;48.542;13.232;2023-05-07T19:58:39;4.63;;;3.75;;
62071;SDS011;48031;48.542;13.232;2023-05-07T20:02:42;6.07;;;3.35;;
62071;SDS011;48031;48.542;13.232;2023-05-07T20:06:44;3.95;;;2.80;;
62071;SDS011;48031;48.542;13.232;2023-05-07T20:10:46;4.82;;;3.17;;
62071;SDS011;48031;48.542;13.232;2023-05-07T20:14:48;5.05;;;3.40;;
62071;SDS011;48031;48.542;13.232;2023-05-07T20:18:50;5.03;;;3.53;;
62071;SDS011;48031;48.542;13.232;2023-05-07T20:22:52;3.38;;;2.92;;
62071;SDS011;48031;48.542;13.232;2023-05-07T20:26:54;5.05;;;3.20;;
62071;SDS011;48031;48.542;13.232;2023-05-07T20:30:55;4.82;;;3.20;;
62071;SDS011;48031;48.542;13.232;2023-05-07T20:34:57;6.10;;;3.40;;
62071;SDS011;48031;48.542;13.232;2023-05-07T20:38:59;4.18;;;2.88;;
62071;SDS011;48031;48.542;13.232;2023-05-07T20:43:01;3.67;;;2.78;;
62071;SDS011;48031;48.542;13.232;2023-05-07T20:47:03;3.25;;;2.45;;
62071;SDS011;48031;48.542;13.232;2023-05-07T20:51:05;3.35;;;2.65;;
62071;SDS011;48031;48.542;13.232;2023-05-07T20:55:06;2.75;;;2.25;;
62071;SDS011;48031;48.542;13.232;2023-05-07T20:59:09;2.22;;;1.73;;
62071;SDS011;48031;48.542;13.232;2023-05-07T21:03:10;3.95;;;2.47;;
62071;SDS011;48031;48.542;13.232;2023-05-07T21:07:12;3.85;;;2.45;;
62071;SDS011;48031;48.542;13.232;2023-05-07T21:11:14;2.60;;;2.13;;
62071;SDS011;48031;48.542;13.232;2023-05-07T21:15:16;3.13;;;2.50;;
62071;SDS011;48031;48.542;13.232;2023-05-07T21:19:18;5.15;;;2.58;;
62071;SDS011;48031;48.542;13.232;2023-05-07T21:23:19;5.68;;;3.10;;
62071;SDS011;48031;48.542;13.232;2023-05-07T21:27:22;4.53;;;2.65;;
62071;SDS011;48031;48.542;13.232;2023-05-07T21:31:23;3.88;;;2.63;;
62071;SDS011;48031;48.542;13.232;2023-05-07T21:35:25;3.28;;;2.40;;
62071;SDS011;48031;48.542;13.232;2023-05-07T21:39:27;3.78;;;2.70;;
62071;SDS011;48031;48.542;13.232;2023-05-07T21:43:29;5.28;;;3.00;;
62071;SDS011;48031;48.542;13.232;2023-05-07T21:47:31;3.70;;;2.85;;
62071;SDS011;48031;48.542;13.232;2023-05-07T21:51:33;7.03;;;3.30;;
62071;SDS011;48031;48.542;13.232;2023-05-07T21:55:35;3.45;;;2.72;;
62071;SDS011;48031;48.542;13.232;2023-05-07T21:59:36;6.30;;;3.35;;
62071;SDS011;48031;48.542;13.232;2023-05-07T22:03:38;4.28;;;3.28;;
62071;SDS011;48031;48.542;13.232;2023-05-07T22:07:40;5.10;;;3.97;;
62071;SDS011;48031;48.542;13.232;2023-05-07T22:11:42;4.15;;;3.30;;
62071;SDS011;48031;48.542;13.232;2023-05-07T22:15:44;4.53;;;3.20;;
62071;SDS011;48031;48.542;13.232;2023-05-07T22:19:58;5.05;;;3.70;;
62071;SDS011;48031;48.542;13.232;2023-05-07T22:23:59;6.13;;;4.13;;
62071;SDS011;48031;48.542;13.232;2023-05-07T22:28:01;5.00;;;3.67;;
62071;SDS011;48031;48.542;13.232;2023-05-07T22:32:03;5.50;;;3.80;;
62071;SDS011;48031;48.542;13.232;2023-05-07T22:36:05;5.65;;;3.92;;
62071;SDS011;48031;48.542;13.232;2023-05-07T22:40:08;6.10;;;3.90;;
62071;SDS011;48031;48.542;13.232;2023-05-07T22:44:10;5.30;;;3.80;;
62071;SDS011;48031;48.542;13.232;2023-05-07T22:48:12;4.07;;;3.22;;
62071;SDS011;48031;48.542;13.232;2023-05-07T22:52:14;4.80;;;3.40;;
62071;SDS011;48031;48.542;13.232;2023-05-07T22:56:17;6.22;;;3.80;;
62071;SDS011;48031;48.542;13.232;2023-05-07T23:00:18;6.18;;;3.78;;
62071;SDS011;48031;48.542;13.232;2023-05-07T23:04:20;5.10;;;3.42;;
62071;SDS011;48031;48.542;13.232;2023-05-07T23:08:22;5.40;;;3.58;;
62071;SDS011;48031;48.542;13.232;2023-05-07T23:12:24;4.80;;;3.25;;
62071;SDS011;48031;48.542;13.232;2023-05-07T23:16:26;5.70;;;3.60;;
62071;SDS011;48031;48.542;13.232;2023-05-07T23:20:30;4.10;;;3.17;;
62071;SDS011;48031;48.542;13.232;2023-05-07T23:24:31;4.15;;;3.10;;
62071;SDS011;48031;48.542;13.232;2023-05-07T23:28:35;4.50;;;2.92;;
62071;SDS011;48031;48.542;13.232;2023-05-07T23:32:36;4.85;;;3.17;;
62071;SDS011;48031;48.542;13.232;2023-05-07T23:36:38;5.15;;;3.17;;
62071;SDS011;48031;48.542;13.232;2023-05-07T23:40:40;4.30;;;3.35;;
62071;SDS011;48031;48.542;13.232;2023-05-07T23:44:42;6.85;;;3.75;;
62071;SDS011;48031;48.542;13.232;2023-05-07T23:48:44;5.90;;;3.60;;
62071;SDS011;48031;48.542;13.232;2023-05-07T23:52:45;4.15;;;2.90;;
62071;SDS011;48031;48.542;13.232;2023-05-07T23:56:47;6.75;;;4.43;;
